sensor_id;sensor_type;location;lat;lon;timestamp;temperature;humidity
8715;DHT22;4394;51.208;8.904;2022-10-31T00:02:30;14.60;99.90
8715;DHT22;4394;51.208;8.904;2022-10-31T00:05:18;14.60;99.90
8715;DHT22;4394;51.208;8.904;2022-10-31T00:08:06;14.50;99.90
8715;DHT22;4394;51.208;8.904;2022-10-31T00:10:55;14.40;99.90
8715;DHT22;4394;51.208;8.904;2022-10-31T00:13:43;14.40;99.90
8715;DHT22;4394;51.208;8.904;2022-10-31T00:16:31;14.30;99.90
8715;DHT22;4394;51.208;8.904;2022-10-31T00:19:18;14.20;99.90
8715;DHT22;4394;51.208;8.904;2022-10-31T00:22:06;14.10;99.90
8715;DHT22;4394;51.208;8.904;2022-10-31T00:24:54;14.20;99.90
8715;DHT22;4394;51.208;8.904;2022-10-31T00:27:43;14.20;99.90
8715;DHT22;4394;51.208;8.904;2022-10-31T00:30:32;14.20;99.90
8715;DHT22;4394;51.208;8.904;2022-10-31T00:33:20;14.20;99.90
8715;DHT22;4394;51.208;8.904;2022-10-31T00:36:14;14.20;99.90
8715;DHT22;4394;51.208;8.904;2022-10-31T00:39:03;14.30;99.90
8715;DHT22;4394;51.208;8.904;2022-10-31T00:41:50;14.20;99.90
8715;DHT22;4394;51.208;8.904;2022-10-31T00:44:40;14.20;99.90
8715;DHT22;4394;51.208;8.904;2022-10-31T00:47:28;14.30;99.90
8715;DHT22;4394;51.208;8.904;2022-10-31T00:50:15;14.40;99.90
8715;DHT22;4394;51.208;8.904;2022-10-31T00:53:03;14.30;99.90
8715;DHT22;4394;51.208;8.904;2022-10-31T00:55:51;14.30;99.90
8715;DHT22;4394;51.208;8.904;2022-10-31T00:58:39;14.30;99.90
8715;DHT22;4394;51.208;8.904;2022-10-31T01:01:28;14.30;99.90
8715;DHT22;4394;51.208;8.904;2022-10-31T01:04:16;14.30;99.90
8715;DHT22;4394;51.208;8.904;2022-10-31T01:07:04;14.20;99.90
8715;DHT22;4394;51.208;8.904;2022-10-31T01:09:51;14.30;99.90
8715;DHT22;4394;51.208;8.904;2022-10-31T01:12:40;14.30;99.90
8715;DHT22;4394;51.208;8.904;2022-10-31T01:15:28;14.40;99.90
8715;DHT22;4394;51.208;8.904;2022-10-31T01:18:17;14.20;99.90
8715;DHT22;4394;51.208;8.904;2022-10-31T01:21:06;14.20;99.90
8715;DHT22;4394;51.208;8.904;2022-10-31T01:23:55;14.30;99.90
8715;DHT22;4394;51.208;8.904;2022-10-31T01:26:43;14.40;99.90
8715;DHT22;4394;51.208;8.904;2022-10-31T01:29:31;14.30;99.90
8715;DHT22;4394;51.208;8.904;2022-10-31T01:32:18;14.20;99.90
8715;DHT22;4394;51.208;8.904;2022-10-31T01:35:08;14.30;99.90
8715;DHT22;4394;51.208;8.904;2022-10-31T01:37:55;14.40;99.90
8715;DHT22;4394;51.208;8.904;2022-10-31T01:40:43;14.40;99.90
8715;DHT22;4394;51.208;8.904;2022-10-31T01:43:41;14.40;99.90
8715;DHT22;4394;51.208;8.904;2022-10-31T01:46:29;14.40;99.90
8715;DHT22;4394;51.208;8.904;2022-10-31T01:49:18;14.40;99.90
8715;DHT22;4394;51.208;8.904;2022-10-31T01:52:11;14.40;99.90
8715;DHT22;4394;51.208;8.904;2022-10-31T01:55:01;14.30;99.90
8715;DHT22;4394;51.208;8.904;2022-10-31T01:57:50;14.30;99.90
8715;DHT22;4394;51.208;8.904;2022-10-31T02:00:39;14.30;99.90
8715;DHT22;4394;51.208;8.904;2022-10-31T02:03:29;14.20;99.90
8715;DHT22;4394;51.208;8.904;2022-10-31T02:06:19;14.20;99.90
8715;DHT22;4394;51.208;8.904;2022-10-31T02:09:10;14.10;99.90
8715;DHT22;4394;51.208;8.904;2022-10-31T02:11:58;14.00;99.90
8715;DHT22;4394;51.208;8.904;2022-10-31T02:14:46;14.00;99.90
8715;DHT22;4394;51.208;8.904;2022-10-31T02:17:34;13.90;99.90
8715;DHT22;4394;51.208;8.904;2022-10-31T02:20:22;13.80;99.90
8715;DHT22;4394;51.208;8.904;2022-10-31T02:26:23;13.70;99.90
8715;DHT22;4394;51.208;8.904;2022-10-31T02:32:25;13.70;99.90
8715;DHT22;4394;51.208;8.904;2022-10-31T02:35:16;13.60;99.90
8715;DHT22;4394;51.208;8.904;2022-10-31T02:38:09;13.60;99.90
8715;DHT22;4394;51.208;8.904;2022-10-31T02:41:03;13.50;99.90
8715;DHT22;4394;51.208;8.904;2022-10-31T02:43:54;13.50;99.90
8715;DHT22;4394;51.208;8.904;2022-10-31T02:46:45;13.40;99.90
8715;DHT22;4394;51.208;8.904;2022-10-31T02:49:38;13.40;99.90
8715;DHT22;4394;51.208;8.904;2022-10-31T02:52:27;13.40;99.90
8715;DHT22;4394;51.208;8.904;2022-10-31T02:58:19;13.30;99.90
8715;DHT22;4394;51.208;8.904;2022-10-31T03:01:26;13.30;99.90
8715;DHT22;4394;51.208;8.904;2022-10-31T03:04:25;13.20;99.90
8715;DHT22;4394;51.208;8.904;2022-10-31T03:07:20;13.20;99.90
8715;DHT22;4394;51.208;8.904;2022-10-31T03:10:10;13.20;99.90
8715;DHT22;4394;51.208;8.904;2022-10-31T03:13:01;13.10;99.90
8715;DHT22;4394;51.208;8.904;2022-10-31T03:15:55;13.00;99.90
8715;DHT22;4394;51.208;8.904;2022-10-31T03:18:47;13.00;99.90
8715;DHT22;4394;51.208;8.904;2022-10-31T03:21:37;12.90;99.90
8715;DHT22;4394;51.208;8.904;2022-10-31T03:24:30;12.90;99.90
8715;DHT22;4394;51.208;8.904;2022-10-31T03:27:20;12.90;99.90
8715;DHT22;4394;51.208;8.904;2022-10-31T03:30:09;12.90;99.90
8715;DHT22;4394;51.208;8.904;2022-10-31T03:32:58;12.90;99.90
8715;DHT22;4394;51.208;8.904;2022-10-31T03:35:47;12.90;99.90
8715;DHT22;4394;51.208;8.904;2022-10-31T03:38:37;12.80;99.90
8715;DHT22;4394;51.208;8.904;2022-10-31T03:41:27;12.90;99.90
8715;DHT22;4394;51.208;8.904;2022-10-31T03:44:16;12.80;99.90
8715;DHT22;4394;51.208;8.904;2022-10-31T03:47:05;12.80;99.90
8715;DHT22;4394;51.208;8.904;2022-10-31T03:49:53;12.80;99.90
8715;DHT22;4394;51.208;8.904;2022-10-31T03:52:41;12.80;99.90
8715;DHT22;4394;51.208;8.904;2022-10-31T03:55:31;12.80;99.90
8715;DHT22;4394;51.208;8.904;2022-10-31T03:58:23;12.70;99.90
8715;DHT22;4394;51.208;8.904;2022-10-31T04:01:13;12.80;99.90
8715;DHT22;4394;51.208;8.904;2022-10-31T04:04:03;12.80;99.90
8715;DHT22;4394;51.208;8.904;2022-10-31T04:06:52;12.90;99.90
8715;DHT22;4394;51.208;8.904;2022-10-31T04:09:41;12.90;99.90
8715;DHT22;4394;51.208;8.904;2022-10-31T04:12:32;12.80;99.90
8715;DHT22;4394;51.208;8.904;2022-10-31T04:15:23;12.80;99.90
8715;DHT22;4394;51.208;8.904;2022-10-31T04:18:11;12.90;99.90
8715;DHT22;4394;51.208;8.904;2022-10-31T04:21:00;13.00;99.90
8715;DHT22;4394;51.208;8.904;2022-10-31T04:23:48;13.20;99.90
8715;DHT22;4394;51.208;8.904;2022-10-31T04:26:35;13.20;99.90
8715;DHT22;4394;51.208;8.904;2022-10-31T04:29:23;13.20;99.90
8715;DHT22;4394;51.208;8.904;2022-10-31T04:32:12;13.20;99.90
8715;DHT22;4394;51.208;8.904;2022-10-31T04:35:00;13.20;99.90
8715;DHT22;4394;51.208;8.904;2022-10-31T04:37:48;13.10;99.90
8715;DHT22;4394;51.208;8.904;2022-10-31T04:40:35;13.00;99.90
8715;DHT22;4394;51.208;8.904;2022-10-31T04:43:23;12.80;99.90
8715;DHT22;4394;51.208;8.904;2022-10-31T04:46:11;12.80;99.90
8715;DHT22;4394;51.208;8.904;2022-10-31T04:49:00;12.80;99.90
8715;DHT22;4394;51.208;8.904;2022-10-31T04:51:48;12.70;99.90
8715;DHT22;4394;51.208;8.904;2022-10-31T04:54:36;12.80;99.90
8715;DHT22;4394;51.208;8.904;2022-10-31T04:57:23;12.80;99.90
8715;DHT22;4394;51.208;8.904;2022-10-31T05:00:12;12.80;99.90
8715;DHT22;4394;51.208;8.904;2022-10-31T05:03:00;12.70;99.90
8715;DHT22;4394;51.208;8.904;2022-10-31T05:05:50;12.60;99.90
8715;DHT22;4394;51.208;8.904;2022-10-31T05:08:37;12.60;99.90
8715;DHT22;4394;51.208;8.904;2022-10-31T05:11:25;12.60;99.90
8715;DHT22;4394;51.208;8.904;2022-10-31T05:14:13;12.60;99.90
8715;DHT22;4394;51.208;8.904;2022-10-31T05:17:01;12.50;99.90
8715;DHT22;4394;51.208;8.904;2022-10-31T05:19:48;12.50;99.90
8715;DHT22;4394;51.208;8.904;2022-10-31T05:22:41;12.60;99.90
8715;DHT22;4394;51.208;8.904;2022-10-31T05:25:29;12.60;99.90
8715;DHT22;4394;51.208;8.904;2022-10-31T05:28:17;12.50;99.90
8715;DHT22;4394;51.208;8.904;2022-10-31T05:31:04;12.50;99.90
8715;DHT22;4394;51.208;8.904;2022-10-31T05:33:52;12.40;99.90
8715;DHT22;4394;51.208;8.904;2022-10-31T05:36:40;12.50;99.90
8715;DHT22;4394;51.208;8.904;2022-10-31T05:39:29;12.40;99.90
8715;DHT22;4394;51.208;8.904;2022-10-31T05:42:16;12.40;99.90
8715;DHT22;4394;51.208;8.904;2022-10-31T05:45:05;12.40;99.90
8715;DHT22;4394;51.208;8.904;2022-10-31T05:47:53;12.40;99.90
8715;DHT22;4394;51.208;8.904;2022-10-31T05:50:41;12.50;99.90
8715;DHT22;4394;51.208;8.904;2022-10-31T05:53:28;12.60;99.90
8715;DHT22;4394;51.208;8.904;2022-10-31T05:56:18;12.80;99.90
8715;DHT22;4394;51.208;8.904;2022-10-31T05:59:05;12.80;99.90
8715;DHT22;4394;51.208;8.904;2022-10-31T06:01:53;12.80;99.90
8715;DHT22;4394;51.208;8.904;2022-10-31T06:04:44;12.80;99.90
8715;DHT22;4394;51.208;8.904;2022-10-31T06:07:32;12.80;99.90
8715;DHT22;4394;51.208;8.904;2022-10-31T06:10:20;12.70;99.90
8715;DHT22;4394;51.208;8.904;2022-10-31T06:13:09;12.70;99.90
8715;DHT22;4394;51.208;8.904;2022-10-31T06:15:57;12.60;99.90
8715;DHT22;4394;51.208;8.904;2022-10-31T06:18:45;12.60;99.90
8715;DHT22;4394;51.208;8.904;2022-10-31T06:21:33;12.60;99.90
8715;DHT22;4394;51.208;8.904;2022-10-31T06:24:20;12.60;99.90
8715;DHT22;4394;51.208;8.904;2022-10-31T06:27:08;12.70;99.90
8715;DHT22;4394;51.208;8.904;2022-10-31T06:29:57;12.70;99.90
8715;DHT22;4394;51.208;8.904;2022-10-31T06:32:45;12.70;99.90
8715;DHT22;4394;51.208;8.904;2022-10-31T06:35:33;12.70;99.90
8715;DHT22;4394;51.208;8.904;2022-10-31T06:38:21;12.70;99.90
8715;DHT22;4394;51.208;8.904;2022-10-31T06:41:09;12.80;99.90
8715;DHT22;4394;51.208;8.904;2022-10-31T06:43:57;12.80;99.90
8715;DHT22;4394;51.208;8.904;2022-10-31T06:46:51;12.80;99.90
8715;DHT22;4394;51.208;8.904;2022-10-31T06:49:39;12.80;99.90
8715;DHT22;4394;51.208;8.904;2022-10-31T06:52:27;12.90;99.90
8715;DHT22;4394;51.208;8.904;2022-10-31T06:55:15;13.00;99.90
8715;DHT22;4394;51.208;8.904;2022-10-31T06:58:03;12.90;99.90
8715;DHT22;4394;51.208;8.904;2022-10-31T07:00:51;12.80;99.90
8715;DHT22;4394;51.208;8.904;2022-10-31T07:03:40;12.80;99.90
8715;DHT22;4394;51.208;8.904;2022-10-31T07:06:28;12.70;99.90
8715;DHT22;4394;51.208;8.904;2022-10-31T07:09:16;12.70;99.90
8715;DHT22;4394;51.208;8.904;2022-10-31T07:12:04;12.80;99.90
8715;DHT22;4394;51.208;8.904;2022-10-31T07:14:51;12.80;99.90
8715;DHT22;4394;51.208;8.904;2022-10-31T07:17:39;12.70;99.90
8715;DHT22;4394;51.208;8.904;2022-10-31T07:20:28;12.70;99.90
8715;DHT22;4394;51.208;8.904;2022-10-31T07:23:16;12.80;99.90
8715;DHT22;4394;51.208;8.904;2022-10-31T07:26:04;12.80;99.90
8715;DHT22;4394;51.208;8.904;2022-10-31T07:28:52;12.80;99.90
8715;DHT22;4394;51.208;8.904;2022-10-31T07:31:40;12.70;99.90
8715;DHT22;4394;51.208;8.904;2022-10-31T07:34:27;12.70;99.90
8715;DHT22;4394;51.208;8.904;2022-10-31T07:37:16;12.60;99.90
8715;DHT22;4394;51.208;8.904;2022-10-31T07:40:05;12.60;99.90
8715;DHT22;4394;51.208;8.904;2022-10-31T07:42:53;12.60;99.90
8715;DHT22;4394;51.208;8.904;2022-10-31T07:45:41;12.60;99.90
8715;DHT22;4394;51.208;8.904;2022-10-31T07:48:29;12.70;99.90
8715;DHT22;4394;51.208;8.904;2022-10-31T07:51:16;12.80;99.90
8715;DHT22;4394;51.208;8.904;2022-10-31T07:54:05;12.90;99.90
8715;DHT22;4394;51.208;8.904;2022-10-31T07:56:53;13.00;99.90
8715;DHT22;4394;51.208;8.904;2022-10-31T07:59:41;13.00;99.90
8715;DHT22;4394;51.208;8.904;2022-10-31T08:02:28;13.10;99.90
8715;DHT22;4394;51.208;8.904;2022-10-31T08:05:16;13.20;99.90
8715;DHT22;4394;51.208;8.904;2022-10-31T08:08:04;13.40;99.90
8715;DHT22;4394;51.208;8.904;2022-10-31T08:10:53;13.50;99.90
8715;DHT22;4394;51.208;8.904;2022-10-31T08:13:41;13.60;99.90
8715;DHT22;4394;51.208;8.904;2022-10-31T08:16:29;13.70;99.90
8715;DHT22;4394;51.208;8.904;2022-10-31T08:19:17;13.80;99.90
8715;DHT22;4394;51.208;8.904;2022-10-31T08:22:04;13.90;99.90
8715;DHT22;4394;51.208;8.904;2022-10-31T08:24:52;14.00;99.90
8715;DHT22;4394;51.208;8.904;2022-10-31T08:27:41;14.20;99.90
8715;DHT22;4394;51.208;8.904;2022-10-31T08:30:30;14.30;99.90
8715;DHT22;4394;51.208;8.904;2022-10-31T08:33:18;14.50;99.90
8715;DHT22;4394;51.208;8.904;2022-10-31T08:36:06;14.50;99.90
8715;DHT22;4394;51.208;8.904;2022-10-31T08:38:54;14.60;99.90
8715;DHT22;4394;51.208;8.904;2022-10-31T08:41:47;14.70;99.90
8715;DHT22;4394;51.208;8.904;2022-10-31T08:44:36;14.80;99.90
8715;DHT22;4394;51.208;8.904;2022-10-31T08:47:24;14.90;99.90
8715;DHT22;4394;51.208;8.904;2022-10-31T08:50:12;15.00;99.90
8715;DHT22;4394;51.208;8.904;2022-10-31T08:53:00;15.10;99.90
8715;DHT22;4394;51.208;8.904;2022-10-31T08:55:53;15.20;99.90
8715;DHT22;4394;51.208;8.904;2022-10-31T08:58:41;15.30;99.90
8715;DHT22;4394;51.208;8.904;2022-10-31T09:01:30;15.40;99.90
8715;DHT22;4394;51.208;8.904;2022-10-31T09:04:18;15.40;99.90
8715;DHT22;4394;51.208;8.904;2022-10-31T09:07:06;15.50;99.90
8715;DHT22;4394;51.208;8.904;2022-10-31T09:10:06;15.60;99.90
8715;DHT22;4394;51.208;8.904;2022-10-31T09:12:55;15.70;99.90
8715;DHT22;4394;51.208;8.904;2022-10-31T09:15:43;15.80;99.90
8715;DHT22;4394;51.208;8.904;2022-10-31T09:18:33;15.90;99.90
8715;DHT22;4394;51.208;8.904;2022-10-31T09:21:21;15.90;99.90
8715;DHT22;4394;51.208;8.904;2022-10-31T09:24:09;16.00;99.90
8715;DHT22;4394;51.208;8.904;2022-10-31T09:26:57;16.10;99.90
8715;DHT22;4394;51.208;8.904;2022-10-31T09:29:45;16.20;99.90
8715;DHT22;4394;51.208;8.904;2022-10-31T09:32:33;16.30;99.90
8715;DHT22;4394;51.208;8.904;2022-10-31T09:35:22;16.40;99.90
8715;DHT22;4394;51.208;8.904;2022-10-31T09:38:12;16.50;99.90
8715;DHT22;4394;51.208;8.904;2022-10-31T09:41:01;16.60;99.90
8715;DHT22;4394;51.208;8.904;2022-10-31T09:43:55;16.60;99.90
8715;DHT22;4394;51.208;8.904;2022-10-31T09:46:47;16.70;99.90
8715;DHT22;4394;51.208;8.904;2022-10-31T09:49:47;16.80;99.90
8715;DHT22;4394;51.208;8.904;2022-10-31T09:52:40;16.90;99.90
8715;DHT22;4394;51.208;8.904;2022-10-31T09:55:31;16.90;99.90
8715;DHT22;4394;51.208;8.904;2022-10-31T09:58:23;16.90;99.90
8715;DHT22;4394;51.208;8.904;2022-10-31T10:01:23;16.90;99.90
8715;DHT22;4394;51.208;8.904;2022-10-31T10:04:20;17.00;99.90
8715;DHT22;4394;51.208;8.904;2022-10-31T10:07:14;17.00;99.90
8715;DHT22;4394;51.208;8.904;2022-10-31T10:10:12;17.10;99.90
8715;DHT22;4394;51.208;8.904;2022-10-31T10:13:23;17.20;99.90
8715;DHT22;4394;51.208;8.904;2022-10-31T10:16:16;17.30;99.90
8715;DHT22;4394;51.208;8.904;2022-10-31T10:19:12;17.40;99.90
8715;DHT22;4394;51.208;8.904;2022-10-31T10:22:03;17.40;99.90
8715;DHT22;4394;51.208;8.904;2022-10-31T10:24:56;17.50;99.90
8715;DHT22;4394;51.208;8.904;2022-10-31T10:27:49;17.60;99.90
8715;DHT22;4394;51.208;8.904;2022-10-31T10:30:39;17.70;99.90
8715;DHT22;4394;51.208;8.904;2022-10-31T10:33:30;17.70;99.90
8715;DHT22;4394;51.208;8.904;2022-10-31T10:36:20;17.80;99.90
8715;DHT22;4394;51.208;8.904;2022-10-31T10:39:11;17.80;99.90
8715;DHT22;4394;51.208;8.904;2022-10-31T10:42:04;17.80;99.90
8715;DHT22;4394;51.208;8.904;2022-10-31T10:45:15;17.80;99.90
8715;DHT22;4394;51.208;8.904;2022-10-31T10:48:23;17.90;99.90
8715;DHT22;4394;51.208;8.904;2022-10-31T10:51:19;18.00;99.90
8715;DHT22;4394;51.208;8.904;2022-10-31T10:54:36;18.00;99.90
8715;DHT22;4394;51.208;8.904;2022-10-31T10:57:36;18.10;99.90
8715;DHT22;4394;51.208;8.904;2022-10-31T11:00:27;18.20;99.90
8715;DHT22;4394;51.208;8.904;2022-10-31T11:03:17;18.20;99.90
8715;DHT22;4394;51.208;8.904;2022-10-31T11:06:15;18.30;99.90
8715;DHT22;4394;51.208;8.904;2022-10-31T11:09:08;18.30;99.90
8715;DHT22;4394;51.208;8.904;2022-10-31T11:11:56;18.40;99.90
8715;DHT22;4394;51.208;8.904;2022-10-31T11:14:45;18.40;99.90
8715;DHT22;4394;51.208;8.904;2022-10-31T11:17:36;18.50;99.90
8715;DHT22;4394;51.208;8.904;2022-10-31T11:20:26;18.50;99.90
8715;DHT22;4394;51.208;8.904;2022-10-31T11:23:17;18.60;99.90
8715;DHT22;4394;51.208;8.904;2022-10-31T11:26:06;18.60;99.90
8715;DHT22;4394;51.208;8.904;2022-10-31T11:28:57;18.70;99.90
8715;DHT22;4394;51.208;8.904;2022-10-31T11:31:45;18.80;99.90
8715;DHT22;4394;51.208;8.904;2022-10-31T11:34:36;18.80;99.90
8715;DHT22;4394;51.208;8.904;2022-10-31T11:37:26;18.80;99.90
8715;DHT22;4394;51.208;8.904;2022-10-31T11:40:15;18.80;99.90
8715;DHT22;4394;51.208;8.904;2022-10-31T11:43:04;18.90;99.90
8715;DHT22;4394;51.208;8.904;2022-10-31T11:45:51;18.90;99.90
8715;DHT22;4394;51.208;8.904;2022-10-31T11:48:39;19.00;99.90
8715;DHT22;4394;51.208;8.904;2022-10-31T11:51:30;19.00;99.90
8715;DHT22;4394;51.208;8.904;2022-10-31T11:54:19;19.00;99.90
8715;DHT22;4394;51.208;8.904;2022-10-31T11:57:20;19.10;99.90
8715;DHT22;4394;51.208;8.904;2022-10-31T12:00:19;19.10;99.90
8715;DHT22;4394;51.208;8.904;2022-10-31T12:03:12;19.10;99.90
8715;DHT22;4394;51.208;8.904;2022-10-31T12:06:02;19.10;99.90
8715;DHT22;4394;51.208;8.904;2022-10-31T12:08:51;19.10;99.90
8715;DHT22;4394;51.208;8.904;2022-10-31T12:11:45;19.20;99.90
8715;DHT22;4394;51.208;8.904;2022-10-31T12:14:35;19.20;99.90
8715;DHT22;4394;51.208;8.904;2022-10-31T12:17:29;19.30;99.90
8715;DHT22;4394;51.208;8.904;2022-10-31T12:20:21;19.40;99.90
8715;DHT22;4394;51.208;8.904;2022-10-31T12:23:15;19.50;99.90
8715;DHT22;4394;51.208;8.904;2022-10-31T12:26:09;19.50;99.90
8715;DHT22;4394;51.208;8.904;2022-10-31T12:29:06;19.60;99.90
8715;DHT22;4394;51.208;8.904;2022-10-31T12:31:57;19.70;99.90
8715;DHT22;4394;51.208;8.904;2022-10-31T12:34:57;19.80;99.90
8715;DHT22;4394;51.208;8.904;2022-10-31T12:37:51;19.90;99.90
8715;DHT22;4394;51.208;8.904;2022-10-31T12:40:48;20.00;99.90
8715;DHT22;4394;51.208;8.904;2022-10-31T12:43:45;20.00;99.90
8715;DHT22;4394;51.208;8.904;2022-10-31T12:46:39;20.20;99.90
8715;DHT22;4394;51.208;8.904;2022-10-31T12:49:42;20.20;99.90
8715;DHT22;4394;51.208;8.904;2022-10-31T12:52:39;20.20;99.90
8715;DHT22;4394;51.208;8.904;2022-10-31T12:55:35;20.20;99.90
8715;DHT22;4394;51.208;8.904;2022-10-31T12:58:26;20.10;99.90
8715;DHT22;4394;51.208;8.904;2022-10-31T13:01:17;20.10;99.90
8715;DHT22;4394;51.208;8.904;2022-10-31T13:04:10;20.10;99.90
8715;DHT22;4394;51.208;8.904;2022-10-31T13:07:00;20.10;99.90
8715;DHT22;4394;51.208;8.904;2022-10-31T13:09:51;20.10;99.90
8715;DHT22;4394;51.208;8.904;2022-10-31T13:12:41;20.10;99.90
8715;DHT22;4394;51.208;8.904;2022-10-31T13:15:30;20.10;99.90
8715;DHT22;4394;51.208;8.904;2022-10-31T13:18:25;20.20;99.90
8715;DHT22;4394;51.208;8.904;2022-10-31T13:21:16;20.20;99.90
8715;DHT22;4394;51.208;8.904;2022-10-31T13:24:07;20.20;99.90
8715;DHT22;4394;51.208;8.904;2022-10-31T13:26:57;20.20;99.90
8715;DHT22;4394;51.208;8.904;2022-10-31T13:29:49;20.30;99.90
8715;DHT22;4394;51.208;8.904;2022-10-31T13:32:43;20.40;99.90
8715;DHT22;4394;51.208;8.904;2022-10-31T13:35:35;20.40;99.90
8715;DHT22;4394;51.208;8.904;2022-10-31T13:38:32;20.40;99.90
8715;DHT22;4394;51.208;8.904;2022-10-31T13:41:26;20.40;99.90
8715;DHT22;4394;51.208;8.904;2022-10-31T13:44:18;20.30;99.90
8715;DHT22;4394;51.208;8.904;2022-10-31T13:47:20;20.30;99.90
8715;DHT22;4394;51.208;8.904;2022-10-31T13:50:18;20.30;99.90
8715;DHT22;4394;51.208;8.904;2022-10-31T13:53:19;20.30;99.90
8715;DHT22;4394;51.208;8.904;2022-10-31T13:59:17;20.20;99.90
8715;DHT22;4394;51.208;8.904;2022-10-31T14:02:12;20.20;99.90
8715;DHT22;4394;51.208;8.904;2022-10-31T14:05:02;20.20;99.90
8715;DHT22;4394;51.208;8.904;2022-10-31T14:07:50;20.20;99.90
8715;DHT22;4394;51.208;8.904;2022-10-31T14:10:45;20.00;99.90
8715;DHT22;4394;51.208;8.904;2022-10-31T14:13:35;20.00;99.90
8715;DHT22;4394;51.208;8.904;2022-10-31T14:16:24;19.90;99.90
8715;DHT22;4394;51.208;8.904;2022-10-31T14:19:14;19.80;99.90
8715;DHT22;4394;51.208;8.904;2022-10-31T14:22:03;19.70;99.90
8715;DHT22;4394;51.208;8.904;2022-10-31T14:24:51;19.50;99.90
8715;DHT22;4394;51.208;8.904;2022-10-31T14:27:46;19.60;99.90
8715;DHT22;4394;51.208;8.904;2022-10-31T14:30:34;19.50;99.90
8715;DHT22;4394;51.208;8.904;2022-10-31T14:33:24;19.40;99.90
8715;DHT22;4394;51.208;8.904;2022-10-31T14:36:18;19.40;99.90
8715;DHT22;4394;51.208;8.904;2022-10-31T14:39:11;19.40;99.90
8715;DHT22;4394;51.208;8.904;2022-10-31T14:42:08;19.30;99.90
8715;DHT22;4394;51.208;8.904;2022-10-31T14:45:17;19.20;99.90
8715;DHT22;4394;51.208;8.904;2022-10-31T14:48:14;19.10;99.90
8715;DHT22;4394;51.208;8.904;2022-10-31T14:51:08;19.10;99.90
8715;DHT22;4394;51.208;8.904;2022-10-31T14:53:57;19.00;99.90
8715;DHT22;4394;51.208;8.904;2022-10-31T14:56:48;18.90;99.90
8715;DHT22;4394;51.208;8.904;2022-10-31T14:59:37;18.90;99.90
8715;DHT22;4394;51.208;8.904;2022-10-31T15:02:28;19.00;99.90
8715;DHT22;4394;51.208;8.904;2022-10-31T15:05:19;19.00;99.90
8715;DHT22;4394;51.208;8.904;2022-10-31T15:08:12;18.90;99.90
8715;DHT22;4394;51.208;8.904;2022-10-31T15:11:09;19.00;99.90
8715;DHT22;4394;51.208;8.904;2022-10-31T15:13:58;18.90;99.90
8715;DHT22;4394;51.208;8.904;2022-10-31T15:16:46;18.80;99.90
8715;DHT22;4394;51.208;8.904;2022-10-31T15:19:35;18.80;99.90
8715;DHT22;4394;51.208;8.904;2022-10-31T15:22:24;18.80;99.90
8715;DHT22;4394;51.208;8.904;2022-10-31T15:25:16;18.70;99.90
8715;DHT22;4394;51.208;8.904;2022-10-31T15:28:12;18.70;99.90
8715;DHT22;4394;51.208;8.904;2022-10-31T15:31:01;18.60;99.90
8715;DHT22;4394;51.208;8.904;2022-10-31T15:33:49;18.60;99.90
8715;DHT22;4394;51.208;8.904;2022-10-31T15:36:39;18.50;99.90
8715;DHT22;4394;51.208;8.904;2022-10-31T15:39:26;18.40;99.90
8715;DHT22;4394;51.208;8.904;2022-10-31T15:42:17;18.30;99.90
8715;DHT22;4394;51.208;8.904;2022-10-31T15:45:13;18.20;99.90
8715;DHT22;4394;51.208;8.904;2022-10-31T15:48:12;18.20;99.90
8715;DHT22;4394;51.208;8.904;2022-10-31T15:51:02;18.10;99.90
8715;DHT22;4394;51.208;8.904;2022-10-31T15:53:52;18.20;99.90
8715;DHT22;4394;51.208;8.904;2022-10-31T15:56:42;18.20;99.90
8715;DHT22;4394;51.208;8.904;2022-10-31T15:59:30;18.20;99.90
8715;DHT22;4394;51.208;8.904;2022-10-31T16:02:19;18.10;99.90
8715;DHT22;4394;51.208;8.904;2022-10-31T16:05:15;18.10;99.90
8715;DHT22;4394;51.208;8.904;2022-10-31T16:08:03;18.00;99.90
8715;DHT22;4394;51.208;8.904;2022-10-31T16:10:53;18.00;99.90
8715;DHT22;4394;51.208;8.904;2022-10-31T16:13:41;18.00;99.90
8715;DHT22;4394;51.208;8.904;2022-10-31T16:16:30;17.80;99.90
8715;DHT22;4394;51.208;8.904;2022-10-31T16:19:22;17.80;99.90
8715;DHT22;4394;51.208;8.904;2022-10-31T16:22:11;17.80;99.90
8715;DHT22;4394;51.208;8.904;2022-10-31T16:25:01;17.80;99.90
8715;DHT22;4394;51.208;8.904;2022-10-31T16:27:51;17.70;99.90
8715;DHT22;4394;51.208;8.904;2022-10-31T16:30:41;17.60;99.90
8715;DHT22;4394;51.208;8.904;2022-10-31T16:33:34;17.50;99.90
8715;DHT22;4394;51.208;8.904;2022-10-31T16:36:29;17.50;99.90
8715;DHT22;4394;51.208;8.904;2022-10-31T16:39:22;17.50;99.90
8715;DHT22;4394;51.208;8.904;2022-10-31T16:42:09;17.50;99.90
8715;DHT22;4394;51.208;8.904;2022-10-31T16:44:59;17.50;99.90
8715;DHT22;4394;51.208;8.904;2022-10-31T16:47:47;17.40;99.90
8715;DHT22;4394;51.208;8.904;2022-10-31T16:50:35;17.30;99.90
8715;DHT22;4394;51.208;8.904;2022-10-31T16:53:24;17.30;99.90
8715;DHT22;4394;51.208;8.904;2022-10-31T16:56:14;17.20;99.90
8715;DHT22;4394;51.208;8.904;2022-10-31T16:59:02;17.20;99.90
8715;DHT22;4394;51.208;8.904;2022-10-31T17:01:52;17.10;99.90
8715;DHT22;4394;51.208;8.904;2022-10-31T17:04:41;17.10;99.90
8715;DHT22;4394;51.208;8.904;2022-10-31T17:07:30;17.00;99.90
8715;DHT22;4394;51.208;8.904;2022-10-31T17:10:17;17.00;99.90
8715;DHT22;4394;51.208;8.904;2022-10-31T17:13:06;16.90;99.90
8715;DHT22;4394;51.208;8.904;2022-10-31T17:15:56;16.90;99.90
8715;DHT22;4394;51.208;8.904;2022-10-31T17:18:46;16.90;99.90
8715;DHT22;4394;51.208;8.904;2022-10-31T17:21:34;16.80;99.90
8715;DHT22;4394;51.208;8.904;2022-10-31T17:24:22;16.80;99.90
8715;DHT22;4394;51.208;8.904;2022-10-31T17:27:10;16.80;99.90
8715;DHT22;4394;51.208;8.904;2022-10-31T17:29:58;16.90;99.90
8715;DHT22;4394;51.208;8.904;2022-10-31T17:32:46;16.90;99.90
8715;DHT22;4394;51.208;8.904;2022-10-31T17:35:36;16.80;99.90
8715;DHT22;4394;51.208;8.904;2022-10-31T17:38:24;16.70;99.90
8715;DHT22;4394;51.208;8.904;2022-10-31T17:41:11;16.60;99.90
8715;DHT22;4394;51.208;8.904;2022-10-31T17:43:59;16.60;99.90
8715;DHT22;4394;51.208;8.904;2022-10-31T17:46:47;16.60;99.90
8715;DHT22;4394;51.208;8.904;2022-10-31T17:49:35;16.60;99.90
8715;DHT22;4394;51.208;8.904;2022-10-31T17:52:24;16.50;99.90
8715;DHT22;4394;51.208;8.904;2022-10-31T17:55:12;16.50;99.90
8715;DHT22;4394;51.208;8.904;2022-10-31T17:58:00;16.50;99.90
8715;DHT22;4394;51.208;8.904;2022-10-31T18:00:49;16.40;99.90
8715;DHT22;4394;51.208;8.904;2022-10-31T18:03:37;16.40;99.90
8715;DHT22;4394;51.208;8.904;2022-10-31T18:06:25;16.40;99.90
8715;DHT22;4394;51.208;8.904;2022-10-31T18:09:14;16.50;99.90
8715;DHT22;4394;51.208;8.904;2022-10-31T18:12:02;16.40;99.90
8715;DHT22;4394;51.208;8.904;2022-10-31T18:14:50;16.30;99.90
8715;DHT22;4394;51.208;8.904;2022-10-31T18:17:38;16.30;99.90
8715;DHT22;4394;51.208;8.904;2022-10-31T18:20:27;16.20;99.90
8715;DHT22;4394;51.208;8.904;2022-10-31T18:23:15;16.20;99.90
8715;DHT22;4394;51.208;8.904;2022-10-31T18:26:04;16.20;99.90
8715;DHT22;4394;51.208;8.904;2022-10-31T18:28:52;16.10;99.90
8715;DHT22;4394;51.208;8.904;2022-10-31T18:31:40;16.10;99.90
8715;DHT22;4394;51.208;8.904;2022-10-31T18:34:28;16.00;99.90
8715;DHT22;4394;51.208;8.904;2022-10-31T18:37:16;15.80;99.90
8715;DHT22;4394;51.208;8.904;2022-10-31T18:40:04;15.80;99.90
8715;DHT22;4394;51.208;8.904;2022-10-31T18:42:53;15.80;99.90
8715;DHT22;4394;51.208;8.904;2022-10-31T18:45:41;15.80;99.90